sensor_id;sensor_type;location;lat;lon;timestamp;P1;durP1;ratioP1;P2;durP2;ratioP2
80619;SDS011;69979;53.682;-2.690;2024-01-27T00:00:40;12;;;11;;
80619;SDS011;69979;53.682;-2.690;2024-01-27T00:03:06;10;;;10;;
80619;SDS011;69979;53.682;-2.690;2024-01-27T00:05:32;8;;;8;;
80619;SDS011;69979;53.682;-2.690;2024-01-27T00:07:58;8;;;8;;
80619;SDS011;69979;53.682;-2.690;2024-01-27T00:10:23;9;;;8;;
80619;SDS011;69979;53.682;-2.690;2024-01-27T00:12:49;7;;;7;;
80619;SDS011;69979;53.682;-2.690;2024-01-27T00:15:15;9;;;8;;
80619;SDS011;69979;53.682;-2.690;2024-01-27T00:17:40;10;;;8;;
80619;SDS011;69979;53.682;-2.690;2024-01-27T00:20:06;10;;;10;;
80619;SDS011;69979;53.682;-2.690;2024-01-27T00:22:32;10;;;9;;
80619;SDS011;69979;53.682;-2.690;2024-01-27T00:24:57;8;;;8;;
80619;SDS011;69979;53.682;-2.690;2024-01-27T00:27:23;10;;;10;;
80619;SDS011;69979;53.682;-2.690;2024-01-27T00:29:49;8;;;8;;
80619;SDS011;69979;53.682;-2.690;2024-01-27T00:32:15;8;;;8;;
80619;SDS011;69979;53.682;-2.690;2024-01-27T00:34:40;9;;;9;;
80619;SDS011;69979;53.682;-2.690;2024-01-27T00:37:06;12;;;9;;
80619;SDS011;69979;53.682;-2.690;2024-01-27T00:39:32;12;;;9;;
80619;SDS011;69979;53.682;-2.690;2024-01-27T00:41:57;9;;;7;;
80619;SDS011;69979;53.682;-2.690;2024-01-27T00:44:23;8;;;7;;
80619;SDS011;69979;53.682;-2.690;2024-01-27T00:46:49;7;;;7;;
80619;SDS011;69979;53.682;-2.690;2024-01-27T00:49:14;9;;;8;;
80619;SDS011;69979;53.682;-2.690;2024-01-27T00:51:40;13;;;10;;
80619;SDS011;69979;53.682;-2.690;2024-01-27T00:54:05;5;;;5;;
80619;SDS011;69979;53.682;-2.690;2024-01-27T00:56:31;10;;;7;;
80619;SDS011;69979;53.682;-2.690;2024-01-27T00:58:57;8;;;8;;
80619;SDS011;69979;53.682;-2.690;2024-01-27T01:01:22;11;;;8;;
80619;SDS011;69979;53.682;-2.690;2024-01-27T01:03:48;11;;;9;;
80619;SDS011;69979;53.682;-2.690;2024-01-27T01:06:14;9;;;8;;
80619;SDS011;69979;53.682;-2.690;2024-01-27T01:08:39;11;;;9;;
80619;SDS011;69979;53.682;-2.690;2024-01-27T01:11:05;7;;;7;;
80619;SDS011;69979;53.682;-2.690;2024-01-27T01:13:31;8;;;5;;
80619;SDS011;69979;53.682;-2.690;2024-01-27T01:15:56;9;;;8;;
80619;SDS011;69979;53.682;-2.690;2024-01-27T01:18:22;5;;;5;;
80619;SDS011;69979;53.682;-2.690;2024-01-27T01:20:48;7;;;5;;
80619;SDS011;69979;53.682;-2.690;2024-01-27T01:23:13;8;;;7;;
80619;SDS011;69979;53.682;-2.690;2024-01-27T01:25:39;5;;;5;;
80619;SDS011;69979;53.682;-2.690;2024-01-27T01:28:05;7;;;7;;
80619;SDS011;69979;53.682;-2.690;2024-01-27T01:30:30;4;;;4;;
80619;SDS011;69979;53.682;-2.690;2024-01-27T01:32:56;5;;;4;;
80619;SDS011;69979;53.682;-2.690;2024-01-27T01:35:22;8;;;7;;
80619;SDS011;69979;53.682;-2.690;2024-01-27T01:37:47;5;;;5;;
80619;SDS011;69979;53.682;-2.690;2024-01-27T01:40:13;5;;;4;;
80619;SDS011;69979;53.682;-2.690;2024-01-27T01:42:39;9;;;7;;
80619;SDS011;69979;53.682;-2.690;2024-01-27T01:45:05;7;;;5;;
80619;SDS011;69979;53.682;-2.690;2024-01-27T01:47:30;8;;;8;;
80619;SDS011;69979;53.682;-2.690;2024-01-27T01:49:56;8;;;8;;
80619;SDS011;69979;53.682;-2.690;2024-01-27T01:52:22;9;;;8;;
80619;SDS011;69979;53.682;-2.690;2024-01-27T01:54:47;8;;;7;;
80619;SDS011;69979;53.682;-2.690;2024-01-27T01:57:13;7;;;5;;
80619;SDS011;69979;53.682;-2.690;2024-01-27T01:59:39;4;;;4;;
80619;SDS011;69979;53.682;-2.690;2024-01-27T02:02:04;5;;;5;;
80619;SDS011;69979;53.682;-2.690;2024-01-27T02:04:30;4;;;2;;
80619;SDS011;69979;53.682;-2.690;2024-01-27T02:06:55;4;;;4;;
80619;SDS011;69979;53.682;-2.690;2024-01-27T02:09:21;9;;;7;;
80619;SDS011;69979;53.682;-2.690;2024-01-27T02:11:47;7;;;5;;
80619;SDS011;69979;53.682;-2.690;2024-01-27T02:14:12;7;;;7;;
80619;SDS011;69979;53.682;-2.690;2024-01-27T02:16:38;5;;;4;;
80619;SDS011;69979;53.682;-2.690;2024-01-27T02:19:04;7;;;7;;
80619;SDS011;69979;53.682;-2.690;2024-01-27T02:21:29;7;;;5;;
80619;SDS011;69979;53.682;-2.690;2024-01-27T02:23:55;6;;;6;;
80619;SDS011;69979;53.682;-2.690;2024-01-27T02:26:21;5;;;5;;
80619;SDS011;69979;53.682;-2.690;2024-01-27T02:28:46;4;;;4;;
80619;SDS011;69979;53.682;-2.690;2024-01-27T02:31:12;8;;;5;;
80619;SDS011;69979;53.682;-2.690;2024-01-27T02:33:37;4;;;4;;
80619;SDS011;69979;53.682;-2.690;2024-01-27T02:36:03;7;;;7;;
80619;SDS011;69979;53.682;-2.690;2024-01-27T02:38:28;7;;;5;;
80619;SDS011;69979;53.682;-2.690;2024-01-27T02:40:53;5;;;5;;
80619;SDS011;69979;53.682;-2.690;2024-01-27T02:43:19;7;;;4;;
80619;SDS011;69979;53.682;-2.690;2024-01-27T02:45:47;5;;;4;;
80619;SDS011;69979;53.682;-2.690;2024-01-27T02:48:11;4;;;3;;
80619;SDS011;69979;53.682;-2.690;2024-01-27T02:50:36;3;;;2;;
80619;SDS011;69979;53.682;-2.690;2024-01-27T02:53:01;5;;;5;;
80619;SDS011;69979;53.682;-2.690;2024-01-27T02:55:27;4;;;4;;
80619;SDS011;69979;53.682;-2.690;2024-01-27T02:57:53;7;;;5;;
80619;SDS011;69979;53.682;-2.690;2024-01-27T03:00:18;4;;;3;;
80619;SDS011;69979;53.682;-2.690;2024-01-27T03:02:44;3;;;3;;
80619;SDS011;69979;53.682;-2.690;2024-01-27T03:05:10;3;;;2;;
80619;SDS011;69979;53.682;-2.690;2024-01-27T03:07:35;4;;;3;;
80619;SDS011;69979;53.682;-2.690;2024-01-27T03:10:01;3;;;3;;
80619;SDS011;69979;53.682;-2.690;2024-01-27T03:12:27;3;;;3;;
80619;SDS011;69979;53.682;-2.690;2024-01-27T03:14:52;3;;;3;;
80619;SDS011;69979;53.682;-2.690;2024-01-27T03:17:18;2;;;2;;
80619;SDS011;69979;53.682;-2.690;2024-01-27T03:19:44;4;;;3;;
80619;SDS011;69979;53.682;-2.690;2024-01-27T03:22:09;2;;;2;;
80619;SDS011;69979;53.682;-2.690;2024-01-27T03:24:35;2;;;2;;
80619;SDS011;69979;53.682;-2.690;2024-01-27T03:27:01;2;;;2;;
80619;SDS011;69979;53.682;-2.690;2024-01-27T03:29:26;3;;;3;;
80619;SDS011;69979;53.682;-2.690;2024-01-27T03:31:52;3;;;3;;
80619;SDS011;69979;53.682;-2.690;2024-01-27T03:34:18;3;;;3;;
80619;SDS011;69979;53.682;-2.690;2024-01-27T03:36:47;3;;;2;;
80619;SDS011;69979;53.682;-2.690;2024-01-27T03:39:09;2;;;2;;
80619;SDS011;69979;53.682;-2.690;2024-01-27T03:41:35;4;;;4;;
80619;SDS011;69979;53.682;-2.690;2024-01-27T03:44:00;3;;;3;;
80619;SDS011;69979;53.682;-2.690;2024-01-27T03:46:26;7;;;5;;
80619;SDS011;69979;53.682;-2.690;2024-01-27T03:48:51;7;;;7;;
80619;SDS011;69979;53.682;-2.690;2024-01-27T03:51:17;8;;;5;;
80619;SDS011;69979;53.682;-2.690;2024-01-27T03:53:43;7;;;7;;
80619;SDS011;69979;53.682;-2.690;2024-01-27T03:56:11;4;;;4;;
80619;SDS011;69979;53.682;-2.690;2024-01-27T03:58:34;5;;;5;;
80619;SDS011;69979;53.682;-2.690;2024-01-27T04:01:00;5;;;5;;
80619;SDS011;69979;53.682;-2.690;2024-01-27T04:03:26;4;;;4;;
80619;SDS011;69979;53.682;-2.690;2024-01-27T04:05:51;5;;;5;;
80619;SDS011;69979;53.682;-2.690;2024-01-27T04:08:17;7;;;3;;
80619;SDS011;69979;53.682;-2.690;2024-01-27T04:10:43;4;;;3;;
80619;SDS011;69979;53.682;-2.690;2024-01-27T04:13:08;2;;;2;;
80619;SDS011;69979;53.682;-2.690;2024-01-27T04:15:34;4;;;3;;
80619;SDS011;69979;53.682;-2.690;2024-01-27T04:18:00;3;;;3;;
80619;SDS011;69979;53.682;-2.690;2024-01-27T04:20:25;3;;;2;;
80619;SDS011;69979;53.682;-2.690;2024-01-27T04:22:51;1;;;1;;
80619;SDS011;69979;53.682;-2.690;2024-01-27T04:25:17;2;;;1;;
80619;SDS011;69979;53.682;-2.690;2024-01-27T04:27:42;1;;;1;;
80619;SDS011;69979;53.682;-2.690;2024-01-27T04:30:10;1;;;1;;
80619;SDS011;69979;53.682;-2.690;2024-01-27T04:32:34;2;;;2;;
80619;SDS011;69979;53.682;-2.690;2024-01-27T04:34:59;2;;;2;;
80619;SDS011;69979;53.682;-2.690;2024-01-27T04:37:25;2;;;2;;
80619;SDS011;69979;53.682;-2.690;2024-01-27T04:39:51;2;;;2;;
80619;SDS011;69979;53.682;-2.690;2024-01-27T04:42:16;2;;;2;;
80619;SDS011;69979;53.682;-2.690;2024-01-27T04:44:42;3;;;2;;
80619;SDS011;69979;53.682;-2.690;2024-01-27T04:47:08;4;;;3;;
80619;SDS011;69979;53.682;-2.690;2024-01-27T04:49:34;2;;;2;;
80619;SDS011;69979;53.682;-2.690;2024-01-27T04:51:59;2;;;2;;
80619;SDS011;69979;53.682;-2.690;2024-01-27T04:54:25;2;;;2;;
80619;SDS011;69979;53.682;-2.690;2024-01-27T04:56:50;5;;;3;;
80619;SDS011;69979;53.682;-2.690;2024-01-27T04:59:16;3;;;2;;
80619;SDS011;69979;53.682;-2.690;2024-01-27T05:01:43;2;;;2;;
80619;SDS011;69979;53.682;-2.690;2024-01-27T05:04:07;3;;;2;;
80619;SDS011;69979;53.682;-2.690;2024-01-27T05:06:33;4;;;4;;
80619;SDS011;69979;53.682;-2.690;2024-01-27T05:08:59;3;;;3;;
80619;SDS011;69979;53.682;-2.690;2024-01-27T05:11:25;3;;;3;;
80619;SDS011;69979;53.682;-2.690;2024-01-27T05:13:50;4;;;3;;
80619;SDS011;69979;53.682;-2.690;2024-01-27T05:16:16;3;;;3;;
80619;SDS011;69979;53.682;-2.690;2024-01-27T05:18:41;3;;;3;;
80619;SDS011;69979;53.682;-2.690;2024-01-27T05:21:07;2;;;2;;
80619;SDS011;69979;53.682;-2.690;2024-01-27T05:23:33;2;;;2;;
80619;SDS011;69979;53.682;-2.690;2024-01-27T05:25:58;2;;;2;;
80619;SDS011;69979;53.682;-2.690;2024-01-27T05:28:24;3;;;3;;
80619;SDS011;69979;53.682;-2.690;2024-01-27T05:30:50;4;;;4;;
80619;SDS011;69979;53.682;-2.690;2024-01-27T05:33:16;3;;;2;;
80619;SDS011;69979;53.682;-2.690;2024-01-27T05:35:41;6;;;4;;
80619;SDS011;69979;53.682;-2.690;2024-01-27T05:38:07;3;;;2;;
80619;SDS011;69979;53.682;-2.690;2024-01-27T05:40:32;3;;;3;;
80619;SDS011;69979;53.682;-2.690;2024-01-27T05:43:04;3;;;3;;
80619;SDS011;69979;53.682;-2.690;2024-01-27T05:45:24;2;;;2;;
80619;SDS011;69979;53.682;-2.690;2024-01-27T05:47:50;3;;;2;;
80619;SDS011;69979;53.682;-2.690;2024-01-27T05:50:15;4;;;3;;
80619;SDS011;69979;53.682;-2.690;2024-01-27T05:52:41;1;;;1;;
80619;SDS011;69979;53.682;-2.690;2024-01-27T05:55:07;2;;;2;;
80619;SDS011;69979;53.682;-2.690;2024-01-27T05:57:32;3;;;3;;
80619;SDS011;69979;53.682;-2.690;2024-01-27T05:59:58;1;;;1;;
80619;SDS011;69979;53.682;-2.690;2024-01-27T06:02:23;2;;;2;;
80619;SDS011;69979;53.682;-2.690;2024-01-27T06:04:49;2;;;1;;
80619;SDS011;69979;53.682;-2.690;2024-01-27T06:07:15;4;;;3;;
80619;SDS011;69979;53.682;-2.690;2024-01-27T06:09:41;8;;;4;;
80619;SDS011;69979;53.682;-2.690;2024-01-27T06:12:06;3;;;3;;
80619;SDS011;69979;53.682;-2.690;2024-01-27T06:14:32;2;;;2;;
80619;SDS011;69979;53.682;-2.690;2024-01-27T06:16:58;2;;;1;;
80619;SDS011;69979;53.682;-2.690;2024-01-27T06:19:23;2;;;2;;
80619;SDS011;69979;53.682;-2.690;2024-01-27T06:21:49;7;;;4;;
80619;SDS011;69979;53.682;-2.690;2024-01-27T06:24:15;1;;;1;;
80619;SDS011;69979;53.682;-2.690;2024-01-27T06:26:41;3;;;2;;
80619;SDS011;69979;53.682;-2.690;2024-01-27T06:29:06;2;;;2;;
80619;SDS011;69979;53.682;-2.690;2024-01-27T06:31:32;4;;;3;;
80619;SDS011;69979;53.682;-2.690;2024-01-27T06:33:58;1;;;1;;
80619;SDS011;69979;53.682;-2.690;2024-01-27T06:36:24;1;;;1;;
80619;SDS011;69979;53.682;-2.690;2024-01-27T06:38:49;2;;;2;;
80619;SDS011;69979;53.682;-2.690;2024-01-27T06:41:15;1;;;1;;
80619;SDS011;69979;53.682;-2.690;2024-01-27T06:43:41;2;;;2;;
80619;SDS011;69979;53.682;-2.690;2024-01-27T06:46:06;2;;;2;;
80619;SDS011;69979;53.682;-2.690;2024-01-27T06:48:32;3;;;1;;
80619;SDS011;69979;53.682;-2.690;2024-01-27T06:50:58;3;;;2;;
80619;SDS011;69979;53.682;-2.690;2024-01-27T06:53:23;4;;;3;;
80619;SDS011;69979;53.682;-2.690;2024-01-27T06:55:49;2;;;2;;
80619;SDS011;69979;53.682;-2.690;2024-01-27T06:58:15;2;;;2;;
80619;SDS011;69979;53.682;-2.690;2024-01-27T07:00:41;3;;;3;;
80619;SDS011;69979;53.682;-2.690;2024-01-27T07:03:06;2;;;2;;
80619;SDS011;69979;53.682;-2.690;2024-01-27T07:05:32;1;;;1;;
80619;SDS011;69979;53.682;-2.690;2024-01-27T07:07:58;3;;;2;;
80619;SDS011;69979;53.682;-2.690;2024-01-27T07:10:23;2;;;2;;
80619;SDS011;69979;53.682;-2.690;2024-01-27T07:12:49;4;;;3;;
80619;SDS011;69979;53.682;-2.690;2024-01-27T07:15:15;2;;;2;;
80619;SDS011;69979;53.682;-2.690;2024-01-27T07:17:40;3;;;3;;
80619;SDS011;69979;53.682;-2.690;2024-01-27T07:20:07;3;;;3;;
80619;SDS011;69979;53.682;-2.690;2024-01-27T07:22:32;2;;;2;;
80619;SDS011;69979;53.682;-2.690;2024-01-27T07:24:58;3;;;3;;
80619;SDS011;69979;53.682;-2.690;2024-01-27T07:27:23;1;;;1;;
80619;SDS011;69979;53.682;-2.690;2024-01-27T07:29:49;7;;;4;;
80619;SDS011;69979;53.682;-2.690;2024-01-27T07:32:14;2;;;2;;
80619;SDS011;69979;53.682;-2.690;2024-01-27T07:34:41;3;;;2;;
80619;SDS011;69979;53.682;-2.690;2024-01-27T07:37:06;2;;;2;;
80619;SDS011;69979;53.682;-2.690;2024-01-27T07:39:31;3;;;3;;
80619;SDS011;69979;53.682;-2.690;2024-01-27T07:41:57;3;;;2;;
80619;SDS011;69979;53.682;-2.690;2024-01-27T07:44:23;2;;;2;;
80619;SDS011;69979;53.682;-2.690;2024-01-27T07:46:49;3;;;3;;
80619;SDS011;69979;53.682;-2.690;2024-01-27T07:49:14;3;;;1;;
80619;SDS011;69979;53.682;-2.690;2024-01-27T07:51:40;3;;;3;;
80619;SDS011;69979;53.682;-2.690;2024-01-27T07:54:05;2;;;2;;
80619;SDS011;69979;53.682;-2.690;2024-01-27T07:56:31;2;;;2;;
80619;SDS011;69979;53.682;-2.690;2024-01-27T07:58:57;6;;;6;;
80619;SDS011;69979;53.682;-2.690;2024-01-27T08:01:22;3;;;3;;
80619;SDS011;69979;53.682;-2.690;2024-01-27T08:03:48;4;;;3;;
80619;SDS011;69979;53.682;-2.690;2024-01-27T08:06:15;3;;;3;;
80619;SDS011;69979;53.682;-2.690;2024-01-27T08:08:39;2;;;2;;
80619;SDS011;69979;53.682;-2.690;2024-01-27T08:11:05;3;;;2;;
80619;SDS011;69979;53.682;-2.690;2024-01-27T08:13:31;2;;;2;;
80619;SDS011;69979;53.682;-2.690;2024-01-27T08:15:56;2;;;2;;
80619;SDS011;69979;53.682;-2.690;2024-01-27T08:18:22;2;;;2;;
80619;SDS011;69979;53.682;-2.690;2024-01-27T08:20:48;2;;;2;;
80619;SDS011;69979;53.682;-2.690;2024-01-27T08:23:13;7;;;6;;
80619;SDS011;69979;53.682;-2.690;2024-01-27T08:25:38;4;;;3;;
80619;SDS011;69979;53.682;-2.690;2024-01-27T08:28:04;2;;;2;;
80619;SDS011;69979;53.682;-2.690;2024-01-27T08:30:29;4;;;3;;
80619;SDS011;69979;53.682;-2.690;2024-01-27T08:32:55;2;;;2;;
80619;SDS011;69979;53.682;-2.690;2024-01-27T08:35:21;2;;;2;;
80619;SDS011;69979;53.682;-2.690;2024-01-27T08:37:47;3;;;2;;
80619;SDS011;69979;53.682;-2.690;2024-01-27T08:40:12;4;;;3;;
80619;SDS011;69979;53.682;-2.690;2024-01-27T08:42:38;6;;;3;;
80619;SDS011;69979;53.682;-2.690;2024-01-27T08:45:04;3;;;3;;
80619;SDS011;69979;53.682;-2.690;2024-01-27T08:47:29;3;;;2;;
80619;SDS011;69979;53.682;-2.690;2024-01-27T08:49:54;3;;;3;;
80619;SDS011;69979;53.682;-2.690;2024-01-27T08:52:20;3;;;2;;
80619;SDS011;69979;53.682;-2.690;2024-01-27T08:54:46;3;;;3;;
80619;SDS011;69979;53.682;-2.690;2024-01-27T08:57:11;2;;;2;;
80619;SDS011;69979;53.682;-2.690;2024-01-27T08:59:37;4;;;3;;
80619;SDS011;69979;53.682;-2.690;2024-01-27T09:02:03;4;;;4;;
80619;SDS011;69979;53.682;-2.690;2024-01-27T09:04:28;2;;;2;;
80619;SDS011;69979;53.682;-2.690;2024-01-27T09:06:53;4;;;3;;
80619;SDS011;69979;53.682;-2.690;2024-01-27T09:09:19;4;;;3;;
80619;SDS011;69979;53.682;-2.690;2024-01-27T09:11:45;3;;;2;;
80619;SDS011;69979;53.682;-2.690;2024-01-27T09:14:10;5;;;4;;
80619;SDS011;69979;53.682;-2.690;2024-01-27T09:16:36;4;;;4;;
80619;SDS011;69979;53.682;-2.690;2024-01-27T09:19:02;2;;;2;;
80619;SDS011;69979;53.682;-2.690;2024-01-27T09:21:27;3;;;2;;
80619;SDS011;69979;53.682;-2.690;2024-01-27T09:23:53;4;;;3;;
80619;SDS011;69979;53.682;-2.690;2024-01-27T09:26:19;4;;;3;;
80619;SDS011;69979;53.682;-2.690;2024-01-27T09:28:45;4;;;4;;
80619;SDS011;69979;53.682;-2.690;2024-01-27T09:31:10;1;;;1;;
80619;SDS011;69979;53.682;-2.690;2024-01-27T09:33:36;7;;;4;;
80619;SDS011;69979;53.682;-2.690;2024-01-27T09:36:02;3;;;3;;
80619;SDS011;69979;53.682;-2.690;2024-01-27T09:38:27;2;;;2;;
80619;SDS011;69979;53.682;-2.690;2024-01-27T09:40:53;4;;;3;;
80619;SDS011;69979;53.682;-2.690;2024-01-27T09:43:19;4;;;3;;
80619;SDS011;69979;53.682;-2.690;2024-01-27T09:45:45;4;;;4;;
80619;SDS011;69979;53.682;-2.690;2024-01-27T09:48:10;4;;;4;;
80619;SDS011;69979;53.682;-2.690;2024-01-27T09:50:36;6;;;6;;
80619;SDS011;69979;53.682;-2.690;2024-01-27T09:53:02;13;;;12;;
80619;SDS011;69979;53.682;-2.690;2024-01-27T09:55:27;31;;;30;;
80619;SDS011;69979;53.682;-2.690;2024-01-27T09:57:53;62;;;60;;
80619;SDS011;69979;53.682;-2.690;2024-01-27T10:00:18;92;;;87;;
80619;SDS011;69979;53.682;-2.690;2024-01-27T10:02:43;83;;;81;;
80619;SDS011;69979;53.682;-2.690;2024-01-27T10:05:09;64;;;63;;
80619;SDS011;69979;53.682;-2.690;2024-01-27T10:07:34;56;;;55;;
80619;SDS011;69979;53.682;-2.690;2024-01-27T10:10:00;44;;;42;;
80619;SDS011;69979;53.682;-2.690;2024-01-27T10:12:25;33;;;33;;
80619;SDS011;69979;53.682;-2.690;2024-01-27T10:14:51;21;;;17;;
80619;SDS011;69979;53.682;-2.690;2024-01-27T10:17:20;15;;;15;;
80619;SDS011;69979;53.682;-2.690;2024-01-27T10:19:42;9;;;9;;
80619;SDS011;69979;53.682;-2.690;2024-01-27T10:22:08;7;;;5;;
80619;SDS011;69979;53.682;-2.690;2024-01-27T10:24:33;3;;;3;;
80619;SDS011;69979;53.682;-2.690;2024-01-27T10:27:00;3;;;3;;
80619;SDS011;69979;53.682;-2.690;2024-01-27T10:29:25;7;;;7;;
80619;SDS011;69979;53.682;-2.690;2024-01-27T10:31:50;17;;;13;;
80619;SDS011;69979;53.682;-2.690;2024-01-27T10:34:19;18;;;17;;
80619;SDS011;69979;53.682;-2.690;2024-01-27T10:36:41;10;;;10;;
80619;SDS011;69979;53.682;-2.690;2024-01-27T10:41:31;11;;;11;;
80619;SDS011;69979;53.682;-2.690;2024-01-27T10:43:57;8;;;7;;
80619;SDS011;69979;53.682;-2.690;2024-01-27T10:46:23;11;;;10;;
80619;SDS011;69979;53.682;-2.690;2024-01-27T10:48:49;11;;;10;;
80619;SDS011;69979;53.682;-2.690;2024-01-27T10:51:14;10;;;10;;
80619;SDS011;69979;53.682;-2.690;2024-01-27T10:53:39;9;;;8;;
80619;SDS011;69979;53.682;-2.690;2024-01-27T10:56:05;8;;;8;;
80619;SDS011;69979;53.682;-2.690;2024-01-27T10:58:30;9;;;9;;
80619;SDS011;69979;53.682;-2.690;2024-01-27T11:00:56;5;;;5;;
80619;SDS011;69979;53.682;-2.690;2024-01-27T11:03:21;14;;;13;;
80619;SDS011;69979;53.682;-2.690;2024-01-27T11:05:46;7;;;5;;
80619;SDS011;69979;53.682;-2.690;2024-01-27T11:08:12;8;;;5;;
80619;SDS011;69979;53.682;-2.690;2024-01-27T11:10:37;5;;;5;;
80619;SDS011;69979;53.682;-2.690;2024-01-27T11:13:03;9;;;5;;
80619;SDS011;69979;53.682;-2.690;2024-01-27T11:15:28;8;;;5;;
80619;SDS011;69979;53.682;-2.690;2024-01-27T11:17:56;8;;;7;;
80619;SDS011;69979;53.682;-2.690;2024-01-27T11:20:19;8;;;7;;
80619;SDS011;69979;53.682;-2.690;2024-01-27T11:22:45;5;;;5;;
80619;SDS011;69979;53.682;-2.690;2024-01-27T11:25:15;7;;;7;;
80619;SDS011;69979;53.682;-2.690;2024-01-27T11:27:36;5;;;5;;
80619;SDS011;69979;53.682;-2.690;2024-01-27T11:30:02;7;;;5;;
80619;SDS011;69979;53.682;-2.690;2024-01-27T11:32:27;4;;;4;;
80619;SDS011;69979;53.682;-2.690;2024-01-27T11:34:53;5;;;4;;
80619;SDS011;69979;53.682;-2.690;2024-01-27T11:37:19;7;;;5;;
80619;SDS011;69979;53.682;-2.690;2024-01-27T11:39:44;4;;;4;;
80619;SDS011;69979;53.682;-2.690;2024-01-27T11:42:11;9;;;7;;
80619;SDS011;69979;53.682;-2.690;2024-01-27T11:44:36;5;;;5;;
80619;SDS011;69979;53.682;-2.690;2024-01-27T11:47:02;6;;;4;;
80619;SDS011;69979;53.682;-2.690;2024-01-27T11:49:27;4;;;4;;
80619;SDS011;69979;53.682;-2.690;2024-01-27T11:51:53;5;;;4;;
80619;SDS011;69979;53.682;-2.690;2024-01-27T11:54:19;5;;;4;;
80619;SDS011;69979;53.682;-2.690;2024-01-27T11:56:44;9;;;5;;
80619;SDS011;69979;53.682;-2.690;2024-01-27T11:59:10;5;;;5;;
80619;SDS011;69979;53.682;-2.690;2024-01-27T12:01:36;5;;;5;;
80619;SDS011;69979;53.682;-2.690;2024-01-27T12:04:02;4;;;4;;
80619;SDS011;69979;53.682;-2.690;2024-01-27T12:06:27;7;;;5;;
80619;SDS011;69979;53.682;-2.690;2024-01-27T12:08:53;7;;;5;;
80619;SDS011;69979;53.682;-2.690;2024-01-27T12:11:18;4;;;4;;
80619;SDS011;69979;53.682;-2.690;2024-01-27T12:13:44;5;;;5;;
80619;SDS011;69979;53.682;-2.690;2024-01-27T12:16:10;3;;;3;;
80619;SDS011;69979;53.682;-2.690;2024-01-27T12:18:36;5;;;5;;
80619;SDS011;69979;53.682;-2.690;2024-01-27T12:21:01;4;;;4;;
80619;SDS011;69979;53.682;-2.690;2024-01-27T12:23:27;4;;;4;;
80619;SDS011;69979;53.682;-2.690;2024-01-27T12:25:53;8;;;5;;
80619;SDS011;69979;53.682;-2.690;2024-01-27T12:28:18;3;;;2;;
80619;SDS011;69979;53.682;-2.690;2024-01-27T12:30:44;5;;;3;;
80619;SDS011;69979;53.682;-2.690;2024-01-27T12:33:10;3;;;3;;
80619;SDS011;69979;53.682;-2.690;2024-01-27T12:35:35;4;;;4;;
80619;SDS011;69979;53.682;-2.690;2024-01-27T12:38:01;5;;;4;;
80619;SDS011;69979;53.682;-2.690;2024-01-27T12:40:27;7;;;5;;
80619;SDS011;69979;53.682;-2.690;2024-01-27T12:42:52;3;;;3;;
80619;SDS011;69979;53.682;-2.690;2024-01-27T12:45:18;4;;;4;;
80619;SDS011;69979;53.682;-2.690;2024-01-27T12:47:43;4;;;3;;
80619;SDS011;69979;53.682;-2.690;2024-01-27T12:50:09;7;;;3;;
80619;SDS011;69979;53.682;-2.690;2024-01-27T12:52:35;5;;;5;;
80619;SDS011;69979;53.682;-2.690;2024-01-27T12:55:00;5;;;4;;
80619;SDS011;69979;53.682;-2.690;2024-01-27T12:57:26;3;;;3;;
80619;SDS011;69979;53.682;-2.690;2024-01-27T12:59:52;4;;;4;;
80619;SDS011;69979;53.682;-2.690;2024-01-27T13:02:17;4;;;4;;
80619;SDS011;69979;53.682;-2.690;2024-01-27T13:04:43;7;;;7;;
80619;SDS011;69979;53.682;-2.690;2024-01-27T13:07:08;4;;;4;;
80619;SDS011;69979;53.682;-2.690;2024-01-27T13:09:34;3;;;3;;
80619;SDS011;69979;53.682;-2.690;2024-01-27T13:12:00;3;;;3;;
80619;SDS011;69979;53.682;-2.690;2024-01-27T13:14:25;4;;;4;;
80619;SDS011;69979;53.682;-2.690;2024-01-27T13:16:51;7;;;5;;
80619;SDS011;69979;53.682;-2.690;2024-01-27T13:19:16;5;;;4;;
80619;SDS011;69979;53.682;-2.690;2024-01-27T13:21:42;5;;;4;;
80619;SDS011;69979;53.682;-2.690;2024-01-27T13:24:08;5;;;5;;
80619;SDS011;69979;53.682;-2.690;2024-01-27T13:26:33;6;;;6;;
80619;SDS011;69979;53.682;-2.690;2024-01-27T13:28:59;6;;;5;;
80619;SDS011;69979;53.682;-2.690;2024-01-27T13:31:25;4;;;3;;
80619;SDS011;69979;53.682;-2.690;2024-01-27T13:33:50;4;;;3;;
80619;SDS011;69979;53.682;-2.690;2024-01-27T13:36:16;5;;;4;;
80619;SDS011;69979;53.682;-2.690;2024-01-27T13:38:41;3;;;3;;
80619;SDS011;69979;53.682;-2.690;2024-01-27T13:41:07;4;;;4;;
80619;SDS011;69979;53.682;-2.690;2024-01-27T13:43:33;4;;;4;;
80619;SDS011;69979;53.682;-2.690;2024-01-27T13:45:58;4;;;3;;
80619;SDS011;69979;53.682;-2.690;2024-01-27T13:48:24;5;;;3;;
80619;SDS011;69979;53.682;-2.690;2024-01-27T13:50:50;4;;;3;;
80619;SDS011;69979;53.682;-2.690;2024-01-27T13:53:15;1;;;1;;
80619;SDS011;69979;53.682;-2.690;2024-01-27T13:55:41;6;;;5;;
80619;SDS011;69979;53.682;-2.690;2024-01-27T13:58:07;5;;;5;;
80619;SDS011;69979;53.682;-2.690;2024-01-27T14:00:32;7;;;7;;
80619;SDS011;69979;53.682;-2.690;2024-01-27T14:02:58;4;;;3;;
80619;SDS011;69979;53.682;-2.690;2024-01-27T14:05:24;5;;;4;;
80619;SDS011;69979;53.682;-2.690;2024-01-27T14:07:49;4;;;4;;
80619;SDS011;69979;53.682;-2.690;2024-01-27T14:10:15;4;;;3;;
80619;SDS011;69979;53.682;-2.690;2024-01-27T14:12:40;5;;;3;;
80619;SDS011;69979;53.682;-2.690;2024-01-27T14:15:06;5;;;5;;
80619;SDS011;69979;53.682;-2.690;2024-01-27T14:17:32;8;;;7;;
80619;SDS011;69979;53.682;-2.690;2024-01-27T14:19:57;4;;;4;;
80619;SDS011;69979;53.682;-2.690;2024-01-27T14:22:23;7;;;5;;
80619;SDS011;69979;53.682;-2.690;2024-01-27T14:24:48;8;;;8;;
80619;SDS011;69979;53.682;-2.690;2024-01-27T14:27:14;9;;;5;;
80619;SDS011;69979;53.682;-2.690;2024-01-27T14:29:40;8;;;7;;
80619;SDS011;69979;53.682;-2.690;2024-01-27T14:32:06;8;;;8;;
80619;SDS011;69979;53.682;-2.690;2024-01-27T14:34:31;11;;;10;;
80619;SDS011;69979;53.682;-2.690;2024-01-27T14:36:57;9;;;8;;
80619;SDS011;69979;53.682;-2.690;2024-01-27T14:39:23;4;;;4;;
80619;SDS011;69979;53.682;-2.690;2024-01-27T14:41:48;9;;;7;;
80619;SDS011;69979;53.682;-2.690;2024-01-27T14:44:13;5;;;5;;
80619;SDS011;69979;53.682;-2.690;2024-01-27T14:46:39;15;;;12;;
80619;SDS011;69979;53.682;-2.690;2024-01-27T14:49:05;5;;;5;;
80619;SDS011;69979;53.682;-2.690;2024-01-27T14:51:30;7;;;7;;
80619;SDS011;69979;53.682;-2.690;2024-01-27T14:53:56;9;;;8;;
80619;SDS011;69979;53.682;-2.690;2024-01-27T14:56:22;7;;;5;;
80619;SDS011;69979;53.682;-2.690;2024-01-27T14:58:47;8;;;5;;
80619;SDS011;69979;53.682;-2.690;2024-01-27T15:01:13;8;;;7;;
80619;SDS011;69979;53.682;-2.690;2024-01-27T15:03:39;4;;;4;;
80619;SDS011;69979;53.682;-2.690;2024-01-27T15:06:04;8;;;7;;
80619;SDS011;69979;53.682;-2.690;2024-01-27T15:08:30;7;;;5;;
80619;SDS011;69979;53.682;-2.690;2024-01-27T15:10:55;9;;;8;;
80619;SDS011;69979;53.682;-2.690;2024-01-27T15:13:21;4;;;4;;
80619;SDS011;69979;53.682;-2.690;2024-01-27T15:15:47;8;;;5;;
80619;SDS011;69979;53.682;-2.690;2024-01-27T15:18:12;4;;;4;;
80619;SDS011;69979;53.682;-2.690;2024-01-27T15:20:38;5;;;5;;
80619;SDS011;69979;53.682;-2.690;2024-01-27T15:23:04;5;;;5;;
80619;SDS011;69979;53.682;-2.690;2024-01-27T15:25:29;9;;;8;;
80619;SDS011;69979;53.682;-2.690;2024-01-27T15:27:55;10;;;8;;
80619;SDS011;69979;53.682;-2.690;2024-01-27T15:30:20;10;;;9;;
80619;SDS011;69979;53.682;-2.690;2024-01-27T15:32:46;7;;;5;;
80619;SDS011;69979;53.682;-2.690;2024-01-27T15:35:12;8;;;7;;
80619;SDS011;69979;53.682;-2.690;2024-01-27T15:37:38;7;;;7;;
80619;SDS011;69979;53.682;-2.690;2024-01-27T15:40:04;7;;;5;;
80619;SDS011;69979;53.682;-2.690;2024-01-27T15:42:29;8;;;8;;
80619;SDS011;69979;53.682;-2.690;2024-01-27T15:44:55;5;;;4;;
80619;SDS011;69979;53.682;-2.690;2024-01-27T15:47:20;8;;;7;;
80619;SDS011;69979;53.682;-2.690;2024-01-27T15:49:46;7;;;5;;